Flight Briefing for CPX106

Departure Arrival
Seattle-Tacoma International Airport (KSEA)
Click to view FAA NOTAMS
Ted Stevens Anchorage International Airport (PANC)
Click to view FAA NOTAMS
Departure Time Arrival Time
N/A N/A
Aircraft Distance
B747-400BCF 1257nm
Departure METAR Arrival METAR
KSEA 261034Z 16007KT 10SM SCT019 SCT027 BKN040 06/04 A3004 RMK AO2 RAE25 P0000 T00560044 PANC 260953Z 00000KT 10SM FEW250 02/M01 A3014 RMK AO2 SLP207 T00171011
Suggested Route
BANGR9 ARRIE FOCHE PRYCE BKA LAIRE JOH WITTI4


View recent IFR Routes data
Notes



Charts and Procedures

Charts for KSEA
No chart available
Charts for PANC
No chart available

Windy.com Weather Map